Time;durP1;ratioP1;P1;durP2;ratioP2;P2;SDS_P1;SDS_P2;PMS_P1;PMS_P2;Temp;Humidity;BMP_temperature;BMP_pressure;BME280_temperature;BME280_humidity;BME280_pressure;Samples;Min_cycle;Max_cycle;Signal;HPM_P1;HPM_P2
2023/12/26 00:02:14;;;;;;;;;;;27.20;99.90;;;;;;4957552;28;19919;-78
2023/12/26 00:04:41;;;;;;;;;;;27.30;99.90;;;;;;4955035;28;19980;-73
2023/12/26 00:07:08;;;;;;;;;;;27.50;99.90;;;;;;4960314;28;19922;-80
2023/12/26 00:09:39;;;;;;;;;;;27.50;99.90;;;;;;4957908;28;19918;-75
2023/12/26 00:12:18;;;;;;;;;;;27.50;99.90;;;;;;4962344;28;19957;-79
2023/12/26 00:14:45;;;;;;;;;;;27.80;99.90;;;;;;4964341;28;20005;-82
2023/12/26 00:17:12;;;;;;;;;;;27.80;99.90;;;;;;4958438;28;20049;-78
2023/12/26 00:19:39;;;;;;;;;;;27.80;99.90;;;;;;4952785;28;19918;-78
2023/12/26 00:22:06;;;;;;;;;;;27.80;99.90;;;;;;4955249;28;19918;-79
2023/12/26 00:24:50;;;;;;;;;;;28.00;99.90;;;;;;4964830;28;19921;-74
2023/12/26 00:27:17;;;;;;;;;;;28.00;99.90;;;;;;4961832;28;19983;-71
2023/12/26 00:29:45;;;;;;;;;;;28.20;99.90;;;;;;4974642;28;19953;-82
2023/12/26 00:32:17;;;;;;;;;;;28.10;99.90;;;;;;4960521;28;19922;-79
2023/12/26 00:34:45;;;;;;;;;;;28.10;99.90;;;;;;4966132;28;19976;-79
2023/12/26 00:37:15;;;;;;;;;;;28.30;99.90;;;;;;4956767;28;20322;-74
2023/12/26 00:39:43;;;;;;;;;;;28.50;99.90;;;;;;4970687;28;19938;-80
2023/12/26 00:42:12;;;;;;;;;;;28.80;99.90;;;;;;4959222;28;19911;-75
2023/12/26 00:44:39;;;;;;;;;;;28.90;99.90;;;;;;4959276;28;20382;-75
2023/12/26 00:47:06;;;;;;;;;;;29.10;99.90;;;;;;4965497;28;20327;-81
2023/12/26 00:49:33;;;;;;;;;;;29.30;99.90;;;;;;4957485;28;19913;-75
2023/12/26 00:52:00;;;;;;;;;;;29.00;99.90;;;;;;4957732;28;19922;-75
2023/12/26 00:54:26;;;;;;;;;;;28.90;99.90;;;;;;4964783;28;20433;-81
2023/12/26 00:56:53;;;;;;;;;;;29.00;99.90;;;;;;4969859;28;19915;-73
2023/12/26 00:59:20;;;;;;;;;;;28.90;99.90;;;;;;4969660;28;19916;-81
2023/12/26 01:01:47;;;;;;;;;;;28.90;99.90;;;;;;4960174;28;19915;-74
2023/12/26 01:04:14;;;;;;;;;;;28.80;99.90;;;;;;4963620;28;19962;-75
2023/12/26 01:06:42;;;;;;;;;;;28.80;99.90;;;;;;4973833;28;19910;-73
2023/12/26 01:09:09;;;;;;;;;;;28.90;99.90;;;;;;4959214;28;19910;-76
2023/12/26 01:11:36;;;;;;;;;;;29.10;99.90;;;;;;4962617;28;19915;-78
2023/12/26 01:14:03;;;;;;;;;;;29.10;99.90;;;;;;4957795;28;20019;-83
2023/12/26 01:16:32;;;;;;;;;;;29.20;99.90;;;;;;4953283;28;19910;-76
2023/12/26 01:18:59;;;;;;;;;;;29.20;99.90;;;;;;4953078;28;20021;-72
2023/12/26 01:21:27;;;;;;;;;;;29.00;99.90;;;;;;4955034;28;19922;-81
2023/12/26 01:23:59;;;;;;;;;;;28.60;99.90;;;;;;4971715;28;19961;-81
2023/12/26 01:26:26;;;;;;;;;;;28.30;99.90;;;;;;4970555;28;20334;-80
2023/12/26 01:28:53;;;;;;;;;;;28.20;99.90;;;;;;4969873;28;19921;-72
2023/12/26 01:31:19;;;;;;;;;;;28.50;99.90;;;;;;4957755;28;19919;-72
2023/12/26 01:33:48;;;;;;;;;;;28.60;99.90;;;;;;4950945;28;19926;-80
2023/12/26 01:36:16;;;;;;;;;;;28.80;99.90;;;;;;4957633;28;20411;-82
2023/12/26 01:38:42;;;;;;;;;;;29.30;99.90;;;;;;4956989;28;20011;-72
2023/12/26 01:41:10;;;;;;;;;;;29.70;99.90;;;;;;4967094;28;19915;-74
2023/12/26 01:43:37;;;;;;;;;;;29.90;99.90;;;;;;4951022;28;19915;-74
2023/12/26 01:46:04;;;;;;;;;;;30.20;99.90;;;;;;4948618;28;19989;-77
2023/12/26 01:48:31;;;;;;;;;;;30.50;99.90;;;;;;4950378;28;19914;-71
2023/12/26 01:51:00;;;;;;;;;;;30.60;99.90;;;;;;4950461;28;19957;-72
2023/12/26 01:53:27;;;;;;;;;;;31.00;99.90;;;;;;4951132;28;19910;-78
2023/12/26 01:55:55;;;;;;;;;;;31.40;99.90;;;;;;4950513;28;20013;-74
2023/12/26 01:58:23;;;;;;;;;;;31.80;99.90;;;;;;4969262;28;19926;-79
2023/12/26 02:00:51;;;;;;;;;;;32.10;99.90;;;;;;4970976;28;19956;-73
2023/12/26 02:03:18;;;;;;;;;;;32.20;99.90;;;;;;4973366;28;19941;-71
2023/12/26 02:05:45;;;;;;;;;;;31.90;99.90;;;;;;4955172;28;19914;-72
2023/12/26 02:08:12;;;;;;;;;;;31.70;99.90;;;;;;4954138;28;20386;-72
2023/12/26 02:10:38;;;;;;;;;;;31.80;99.90;;;;;;4955174;28;19922;-72
2023/12/26 02:13:05;;;;;;;;;;;32.00;99.90;;;;;;4955040;28;19928;-81
2023/12/26 02:15:32;;;;;;;;;;;31.90;99.90;;;;;;4955220;28;19918;-77
2023/12/26 02:17:59;;;;;;;;;;;31.70;99.90;;;;;;4956055;28;19994;-84
2023/12/26 02:20:30;;;;;;;;;;;31.40;99.90;;;;;;4954673;28;20446;-73
2023/12/26 02:22:57;;;;;;;;;;;31.20;99.90;;;;;;4956074;28;19928;-74
2023/12/26 02:25:24;;;;;;;;;;;30.50;99.90;;;;;;4954738;28;19918;-76
2023/12/26 02:27:51;;;;;;;;;;;29.90;99.90;;;;;;4954928;28;19911;-74
2023/12/26 02:30:22;;;;;;;;;;;29.30;99.90;;;;;;4954714;28;20381;-77
2023/12/26 02:32:49;;;;;;;;;;;28.90;99.90;;;;;;4964028;28;20000;-73
2023/12/26 02:35:16;;;;;;;;;;;28.80;99.90;;;;;;4972400;28;19915;-80
2023/12/26 02:37:43;;;;;;;;;;;28.80;99.90;;;;;;4958973;28;19976;-75
2023/12/26 02:40:10;;;;;;;;;;;29.20;99.90;;;;;;4955078;28;19918;-73
2023/12/26 02:42:37;;;;;;;;;;;29.60;99.90;;;;;;4954500;28;20017;-78
2023/12/26 02:45:04;;;;;;;;;;;30.20;99.90;;;;;;4954716;28;19925;-73
2023/12/26 02:47:35;;;;;;;;;;;30.90;99.90;;;;;;4954408;28;19917;-73
2023/12/26 02:50:02;;;;;;;;;;;31.40;99.90;;;;;;4954684;28;20275;-74
2023/12/26 02:52:29;;;;;;;;;;;31.90;99.90;;;;;;4954271;28;19953;-80
2023/12/26 02:54:56;;;;;;;;;;;32.20;99.90;;;;;;4961001;28;19926;-78
2023/12/26 02:57:24;;;;;;;;;;;32.10;99.90;;;;;;4954012;28;19924;-73
2023/12/26 02:59:51;;;;;;;;;;;31.90;99.90;;;;;;4956092;28;19911;-78
2023/12/26 03:02:18;;;;;;;;;;;31.60;99.90;;;;;;4972077;28;20374;-76
2023/12/26 03:04:47;;;;;;;;;;;31.10;99.90;;;;;;4973655;28;19918;-74
2023/12/26 03:07:13;;;;;;;;;;;30.70;99.90;;;;;;4973734;28;19914;-79
2023/12/26 03:09:40;;;;;;;;;;;30.60;99.90;;;;;;4972214;28;19977;-73
2023/12/26 03:12:07;;;;;;;;;;;30.30;99.90;;;;;;4953813;28;19914;-74
2023/12/26 03:14:37;;;;;;;;;;;30.10;99.90;;;;;;4953981;28;19910;-73
2023/12/26 03:17:04;;;;;;;;;;;29.80;99.90;;;;;;4953899;28;20334;-73
2023/12/26 03:19:31;;;;;;;;;;;29.60;99.90;;;;;;4964038;28;20275;-72
2023/12/26 03:21:58;;;;;;;;;;;29.30;99.90;;;;;;4972816;28;20351;-73
2023/12/26 03:24:25;;;;;;;;;;;29.00;99.90;;;;;;4971945;28;19910;-73
2023/12/26 03:26:52;;;;;;;;;;;28.80;99.90;;;;;;4973124;28;19918;-72
2023/12/26 03:29:22;;;;;;;;;;;28.60;99.90;;;;;;4958413;28;19954;-73
2023/12/26 03:31:49;;;;;;;;;;;28.30;99.90;;;;;;4971794;28;20490;-73
2023/12/26 03:34:16;;;;;;;;;;;28.00;99.90;;;;;;4971928;28;20356;-75
2023/12/26 03:36:48;;;;;;;;;;;27.90;99.90;;;;;;4972881;28;20434;-73
2023/12/26 03:39:15;;;;;;;;;;;27.80;99.90;;;;;;4972950;28;19956;-73
2023/12/26 03:41:44;;;;;;;;;;;27.70;99.90;;;;;;4972876;28;19914;-73
2023/12/26 03:44:12;;;;;;;;;;;27.50;99.90;;;;;;4966196;28;19922;-73
2023/12/26 03:46:44;;;;;;;;;;;27.40;99.90;;;;;;4955490;28;19950;-73
2023/12/26 03:49:10;;;;;;;;;;;27.20;99.90;;;;;;4953397;28;19910;-72
2023/12/26 03:51:38;;;;;;;;;;;27.10;99.90;;;;;;4969731;28;19914;-72
2023/12/26 03:54:05;;;;;;;;;;;27.00;99.90;;;;;;4971438;28;20021;-71
2023/12/26 03:56:32;;;;;;;;;;;26.80;99.90;;;;;;4965295;28;19922;-73
2023/12/26 03:59:02;;;;;;;;;;;26.70;99.90;;;;;;4953333;28;20009;-72
2023/12/26 04:01:33;;;;;;;;;;;26.70;99.90;;;;;;4953095;28;19917;-72
2023/12/26 04:04:02;;;;;;;;;;;26.40;99.90;;;;;;4953257;28;19910;-73
2023/12/26 04:06:29;;;;;;;;;;;26.30;99.90;;;;;;4953138;28;19966;-72
2023/12/26 04:08:56;;;;;;;;;;;26.20;99.90;;;;;;4953059;28;20291;-72
2023/12/26 04:11:23;;;;;;;;;;;26.20;99.90;;;;;;4968227;28;20347;-73
2023/12/26 04:13:50;;;;;;;;;;;26.10;99.90;;;;;;4971117;28;19910;-73
2023/12/26 04:16:17;;;;;;;;;;;26.10;99.90;;;;;;4972230;28;20418;-72
2023/12/26 04:18:48;;;;;;;;;;;26.00;99.90;;;;;;4972203;28;19941;-73
2023/12/26 04:21:15;;;;;;;;;;;25.80;99.90;;;;;;4972102;28;19910;-72
2023/12/26 04:23:42;;;;;;;;;;;25.70;99.90;;;;;;4969932;28;19930;-72
2023/12/26 04:26:08;;;;;;;;;;;25.70;99.90;;;;;;4970162;28;19929;-73
2023/12/26 04:28:35;;;;;;;;;;;25.80;99.90;;;;;;4972158;28;19910;-72
2023/12/26 04:31:04;;;;;;;;;;;25.80;99.90;;;;;;4961510;28;19914;-72
2023/12/26 04:33:31;;;;;;;;;;;25.80;99.90;;;;;;4953652;28;19914;-72
2023/12/26 04:36:00;;;;;;;;;;;25.90;99.90;;;;;;4971685;28;19921;-73
2023/12/26 04:38:27;;;;;;;;;;;25.80;99.90;;;;;;4973371;28;19922;-72
2023/12/26 04:40:54;;;;;;;;;;;25.70;99.90;;;;;;4971664;28;19918;-73
2023/12/26 04:43:24;;;;;;;;;;;25.70;99.90;;;;;;4970785;28;20430;-74
2023/12/26 04:45:51;;;;;;;;;;;25.70;99.90;;;;;;4971912;28;19933;-74
2023/12/26 04:48:18;;;;;;;;;;;25.50;99.90;;;;;;4971868;28;19911;-72
2023/12/26 04:50:45;;;;;;;;;;;25.60;99.90;;;;;;4963164;28;19911;-73
2023/12/26 04:53:12;;;;;;;;;;;25.60;99.90;;;;;;4952493;28;20005;-73
2023/12/26 04:55:40;;;;;;;;;;;25.40;99.90;;;;;;4952331;28;19911;-73
2023/12/26 04:58:07;;;;;;;;;;;25.40;99.90;;;;;;4952256;28;19958;-73
2023/12/26 05:00:34;;;;;;;;;;;25.40;99.90;;;;;;4952515;28;20261;-72
2023/12/26 05:03:02;;;;;;;;;;;25.30;99.90;;;;;;4952167;28;19911;-73
2023/12/26 05:05:28;;;;;;;;;;;25.30;99.90;;;;;;4952433;28;20363;-72
2023/12/26 05:07:55;;;;;;;;;;;25.20;99.90;;;;;;4952397;28;19915;-73
2023/12/26 05:10:22;;;;;;;;;;;25.20;99.90;;;;;;4959065;28;19929;-73
2023/12/26 05:12:51;;;;;;;;;;;25.20;99.90;;;;;;4969898;28;19914;-75
2023/12/26 05:15:17;;;;;;;;;;;25.10;99.90;;;;;;4971301;28;19910;-73
2023/12/26 05:17:44;;;;;;;;;;;25.10;99.90;;;;;;4971113;28;19922;-73
2023/12/26 05:20:11;;;;;;;;;;;25.10;99.90;;;;;;4952328;28;19965;-71
2023/12/26 05:22:38;;;;;;;;;;;25.10;99.90;;;;;;4952207;28;19922;-73
2023/12/26 05:25:05;;;;;;;;;;;25.00;99.90;;;;;;4966611;28;19914;-73
2023/12/26 05:27:32;;;;;;;;;;;24.90;99.90;;;;;;4970937;28;19925;-73
2023/12/26 05:29:58;;;;;;;;;;;24.90;99.90;;;;;;4971302;28;19915;-73
2023/12/26 05:32:25;;;;;;;;;;;24.80;99.90;;;;;;4970861;28;19910;-74
2023/12/26 05:34:55;;;;;;;;;;;24.80;99.90;;;;;;4971394;28;20356;-72
2023/12/26 05:37:22;;;;;;;;;;;24.80;99.90;;;;;;4970321;28;20016;-73
2023/12/26 05:39:50;;;;;;;;;;;24.80;99.90;;;;;;4971460;28;19910;-73
2023/12/26 05:42:17;;;;;;;;;;;24.80;99.90;;;;;;4971100;28;20001;-73
2023/12/26 05:44:43;;;;;;;;;;;24.90;99.90;;;;;;4971048;28;19910;-73
2023/12/26 05:47:10;;;;;;;;;;;25.00;99.90;;;;;;4970825;28;19936;-73
2023/12/26 05:49:37;;;;;;;;;;;25.10;99.90;;;;;;4970894;28;20342;-71
2023/12/26 05:52:04;;;;;;;;;;;25.00;99.90;;;;;;4969629;28;19920;-72
2023/12/26 05:54:30;;;;;;;;;;;24.90;99.90;;;;;;4971128;28;19917;-72
2023/12/26 05:56:57;;;;;;;;;;;24.90;99.90;;;;;;4971117;28;19915;-73
2023/12/26 05:59:23;;;;;;;;;;;24.90;99.90;;;;;;4971007;28;19910;-71
2023/12/26 06:01:50;;;;;;;;;;;25.00;99.90;;;;;;4970801;28;19911;-72
2023/12/26 06:04:17;;;;;;;;;;;24.90;99.90;;;;;;4971089;28;19910;-71
2023/12/26 06:06:43;;;;;;;;;;;25.00;99.90;;;;;;4971611;28;19910;-72
2023/12/26 06:09:10;;;;;;;;;;;24.90;99.90;;;;;;4971070;28;19911;-73
2023/12/26 06:11:37;;;;;;;;;;;24.80;99.90;;;;;;4970154;28;20332;-74
2023/12/26 06:14:05;;;;;;;;;;;24.90;99.90;;;;;;4971681;28;19937;-73
2023/12/26 06:16:32;;;;;;;;;;;24.90;99.90;;;;;;4970603;28;19910;-72
2023/12/26 06:18:58;;;;;;;;;;;25.10;99.90;;;;;;4970422;28;19957;-74
2023/12/26 06:21:25;;;;;;;;;;;25.50;99.90;;;;;;4970481;28;20012;-72
2023/12/26 06:23:52;;;;;;;;;;;25.70;99.90;;;;;;4970390;28;19918;-72
2023/12/26 06:26:18;;;;;;;;;;;26.00;99.90;;;;;;4970786;28;19991;-72
2023/12/26 06:28:45;;;;;;;;;;;26.20;99.90;;;;;;4970601;28;19972;-72
2023/12/26 06:31:15;;;;;;;;;;;26.40;99.90;;;;;;4969833;28;19919;-71
2023/12/26 06:33:42;;;;;;;;;;;26.60;99.90;;;;;;4970249;28;19914;-75
2023/12/26 06:36:08;;;;;;;;;;;26.60;99.90;;;;;;4970524;28;19910;-72
2023/12/26 06:38:35;;;;;;;;;;;26.70;99.90;;;;;;4970284;28;19922;-72
2023/12/26 06:41:02;;;;;;;;;;;26.60;99.90;;;;;;4970197;28;19911;-72
2023/12/26 06:43:29;;;;;;;;;;;26.60;99.90;;;;;;4970534;28;19933;-74
2023/12/26 06:45:56;;;;;;;;;;;26.80;99.90;;;;;;4971013;28;20016;-72
2023/12/26 06:48:23;;;;;;;;;;;26.90;99.90;;;;;;4971608;28;19910;-75
2023/12/26 06:50:50;;;;;;;;;;;27.00;99.90;;;;;;4973290;28;19914;-72
2023/12/26 06:53:16;;;;;;;;;;;27.00;99.90;;;;;;4973436;28;19917;-72
2023/12/26 06:55:43;;;;;;;;;;;26.90;99.90;;;;;;4973621;28;19917;-73
2023/12/26 06:58:09;;;;;;;;;;;26.80;99.90;;;;;;4973321;28;19969;-75
2023/12/26 07:00:36;;;;;;;;;;;26.60;99.90;;;;;;4973423;28;20001;-73
2023/12/26 07:03:03;;;;;;;;;;;26.40;99.90;;;;;;4973394;28;19910;-72
2023/12/26 07:05:29;;;;;;;;;;;26.30;99.90;;;;;;4973207;28;20287;-72
2023/12/26 07:07:56;;;;;;;;;;;26.30;99.90;;;;;;4973448;28;19914;-72
2023/12/26 07:10:22;;;;;;;;;;;26.10;99.90;;;;;;4973052;28;19925;-74
2023/12/26 07:12:49;;;;;;;;;;;26.20;99.90;;;;;;4973357;28;19961;-73
2023/12/26 07:15:16;;;;;;;;;;;26.10;99.90;;;;;;4973490;28;20044;-72
2023/12/26 07:17:42;;;;;;;;;;;26.00;99.90;;;;;;4973258;28;20052;-73
2023/12/26 07:20:09;;;;;;;;;;;25.90;99.90;;;;;;4973138;28;19999;-73
2023/12/26 07:22:36;;;;;;;;;;;25.70;99.90;;;;;;4972779;28;19922;-73
2023/12/26 07:25:03;;;;;;;;;;;25.60;99.90;;;;;;4973065;28;20380;-74
2023/12/26 07:27:29;;;;;;;;;;;25.60;99.90;;;;;;4973281;28;19993;-73
2023/12/26 07:29:56;;;;;;;;;;;25.50;99.90;;;;;;4972849;28;19918;-73
2023/12/26 07:32:23;;;;;;;;;;;25.40;99.90;;;;;;4973159;28;19949;-74
2023/12/26 07:34:49;;;;;;;;;;;25.30;99.90;;;;;;4973002;28;20004;-72
2023/12/26 07:37:16;;;;;;;;;;;25.20;99.90;;;;;;4971422;28;19918;-73
2023/12/26 07:39:42;;;;;;;;;;;25.10;99.90;;;;;;4972658;28;19921;-73
2023/12/26 07:42:09;;;;;;;;;;;25.10;99.90;;;;;;4972981;28;19991;-72
2023/12/26 07:44:36;;;;;;;;;;;25.00;99.90;;;;;;4972769;28;20360;-73
2023/12/26 07:47:02;;;;;;;;;;;25.00;99.90;;;;;;4972132;28;19918;-73
2023/12/26 07:49:29;;;;;;;;;;;25.00;99.90;;;;;;4972669;28;19915;-75
2023/12/26 07:51:56;;;;;;;;;;;25.00;99.90;;;;;;4972580;28;20032;-73
2023/12/26 07:54:22;;;;;;;;;;;24.90;99.90;;;;;;4972475;28;19925;-74
2023/12/26 07:56:49;;;;;;;;;;;24.90;99.90;;;;;;4972691;28;20310;-75
2023/12/26 07:59:16;;;;;;;;;;;25.00;99.90;;;;;;4972020;28;19918;-74
2023/12/26 08:01:42;;;;;;;;;;;24.90;99.90;;;;;;4972141;28;20355;-74
2023/12/26 08:04:09;;;;;;;;;;;24.90;99.90;;;;;;4972659;28;19984;-74
2023/12/26 08:06:36;;;;;;;;;;;24.90;99.90;;;;;;4972528;28;19917;-74
2023/12/26 08:09:04;;;;;;;;;;;24.90;99.90;;;;;;4972156;28;19914;-76
2023/12/26 08:11:48;;;;;;;;;;;24.80;99.90;;;;;;4972655;28;19910;-72
2023/12/26 08:14:17;;;;;;;;;;;24.90;99.90;;;;;;4972301;28;20355;-73
2023/12/26 08:16:46;;;;;;;;;;;24.80;99.90;;;;;;4971714;28;19911;-72
2023/12/26 08:19:13;;;;;;;;;;;24.80;99.90;;;;;;4972186;28;19914;-78
2023/12/26 08:21:39;;;;;;;;;;;24.70;99.90;;;;;;4971984;28;19914;-76
2023/12/26 08:24:09;;;;;;;;;;;24.80;99.90;;;;;;4972084;28;20371;-76
2023/12/26 08:26:36;;;;;;;;;;;24.70;99.90;;;;;;4972108;28;19937;-77
2023/12/26 08:29:06;;;;;;;;;;;24.80;99.90;;;;;;4970884;28;21546;-77
2023/12/26 08:31:33;;;;;;;;;;;24.70;99.90;;;;;;4972006;28;19916;-74
2023/12/26 08:34:00;;;;;;;;;;;24.80;99.90;;;;;;4971811;28;19906;-72
2023/12/26 08:36:26;;;;;;;;;;;24.70;99.90;;;;;;4972106;28;19971;-75
2023/12/26 08:38:53;;;;;;;;;;;24.70;99.90;;;;;;4972078;28;19922;-76
2023/12/26 08:41:20;;;;;;;;;;;24.80;99.90;;;;;;4971724;28;19937;-75
2023/12/26 08:43:46;;;;;;;;;;;24.60;99.90;;;;;;4970433;28;19914;-75
2023/12/26 08:46:14;;;;;;;;;;;24.60;99.90;;;;;;4970982;28;20352;-76
2023/12/26 08:48:40;;;;;;;;;;;24.60;99.90;;;;;;4966472;28;19919;-78
2023/12/26 08:51:07;;;;;;;;;;;24.60;99.90;;;;;;4965572;28;19914;-76
2023/12/26 08:53:34;;;;;;;;;;;24.50;99.90;;;;;;4970794;28;19918;-72
2023/12/26 08:56:03;;;;;;;;;;;24.50;99.90;;;;;;4986678;28;20363;-76
2023/12/26 08:58:32;;;;;;;;;;;24.50;99.90;;;;;;4966634;28;19927;-73
2023/12/26 09:01:01;;;;;;;;;;;24.40;99.90;;;;;;4969994;28;19929;-74
2023/12/26 09:03:28;;;;;;;;;;;24.30;99.90;;;;;;4968903;28;19984;-76
2023/12/26 09:05:55;;;;;;;;;;;24.30;99.90;;;;;;4989835;28;19918;-75
2023/12/26 09:08:21;;;;;;;;;;;24.20;99.90;;;;;;4963589;28;20387;-77
2023/12/26 09:10:48;;;;;;;;;;;24.20;99.90;;;;;;4967276;28;20453;-77
2023/12/26 09:13:16;;;;;;;;;;;24.10;99.90;;;;;;4971113;28;19920;-78
2023/12/26 09:15:43;;;;;;;;;;;24.10;99.90;;;;;;4970715;28;19914;-77
2023/12/26 09:18:12;;;;;;;;;;;24.10;99.90;;;;;;4971287;28;20034;-80
2023/12/26 09:20:38;;;;;;;;;;;24.10;99.90;;;;;;4971910;28;19945;-76
2023/12/26 09:23:05;;;;;;;;;;;24.10;99.90;;;;;;4970935;28;20013;-77
2023/12/26 09:25:32;;;;;;;;;;;24.00;99.90;;;;;;5003961;28;19978;-76
2023/12/26 09:27:59;;;;;;;;;;;24.00;99.90;;;;;;5052672;28;20259;-77
2023/12/26 09:30:26;;;;;;;;;;;24.00;99.90;;;;;;5053415;28;19956;-76
2023/12/26 09:32:52;;;;;;;;;;;23.90;99.90;;;;;;4972873;28;19914;-78
2023/12/26 09:35:19;;;;;;;;;;;23.90;99.90;;;;;;4969939;28;19948;-75
2023/12/26 09:37:46;;;;;;;;;;;23.90;99.90;;;;;;4968678;28;19968;-74
2023/12/26 09:40:12;;;;;;;;;;;23.80;99.90;;;;;;4966953;28;19918;-74
2023/12/26 09:42:39;;;;;;;;;;;23.80;99.90;;;;;;4981792;28;19917;-77
2023/12/26 09:45:09;;;;;;;;;;;23.80;99.90;;;;;;4968731;28;19949;-76
2023/12/26 09:47:36;;;;;;;;;;;23.80;99.90;;;;;;4967277;28;20382;-74
2023/12/26 09:50:03;;;;;;;;;;;23.80;99.90;;;;;;4968717;28;19918;-75
2023/12/26 09:52:35;;;;;;;;;;;23.80;99.90;;;;;;4963873;28;20397;-77
2023/12/26 09:55:02;;;;;;;;;;;23.80;99.90;;;;;;4961378;28;19929;-74
2023/12/26 09:57:29;;;;;;;;;;;23.80;99.90;;;;;;4967562;28;19926;-76
2023/12/26 09:59:56;;;;;;;;;;;23.80;99.90;;;;;;4963401;28;19918;-77
2023/12/26 10:02:23;;;;;;;;;;;23.80;99.90;;;;;;4966522;28;19918;-75
2023/12/26 10:04:49;;;;;;;;;;;23.80;99.90;;;;;;4965430;28;19922;-73
2023/12/26 10:07:19;;;;;;;;;;;23.80;99.90;;;;;;4960660;28;20001;-76
2023/12/26 10:09:46;;;;;;;;;;;23.80;99.90;;;;;;4961030;28;19910;-73
2023/12/26 10:12:12;;;;;;;;;;;23.80;99.90;;;;;;4971168;28;19951;-73
2023/12/26 10:14:39;;;;;;;;;;;23.80;99.90;;;;;;4973084;28;20402;-74
2023/12/26 10:17:07;;;;;;;;;;;23.90;99.90;;;;;;4960843;28;19959;-74
2023/12/26 10:19:34;;;;;;;;;;;23.90;99.90;;;;;;4972610;28;19917;-73
2023/12/26 10:22:02;;;;;;;;;;;24.00;99.90;;;;;;4960445;28;19925;-77
2023/12/26 10:24:28;;;;;;;;;;;24.00;99.90;;;;;;4963698;28;19915;-73
2023/12/26 10:26:56;;;;;;;;;;;24.00;99.90;;;;;;4964785;28;20367;-77
2023/12/26 10:29:25;;;;;;;;;;;24.00;99.90;;;;;;4957121;28;20001;-76
2023/12/26 10:31:52;;;;;;;;;;;24.10;99.90;;;;;;4963986;28;19968;-76
2023/12/26 10:34:19;;;;;;;;;;;24.10;99.90;;;;;;4971232;28;19915;-73
2023/12/26 10:36:47;;;;;;;;;;;24.10;99.90;;;;;;4963012;28;20364;-72
2023/12/26 10:39:13;;;;;;;;;;;24.20;99.90;;;;;;4977894;28;19926;-75
2023/12/26 10:41:44;;;;;;;;;;;24.20;99.90;;;;;;4962640;28;20310;-75
2023/12/26 10:44:12;;;;;;;;;;;24.10;99.90;;;;;;4963146;28;19910;-77
2023/12/26 10:46:39;;;;;;;;;;;24.20;99.90;;;;;;4969505;28;20008;-78
2023/12/26 10:49:09;;;;;;;;;;;24.20;99.90;;;;;;4971610;28;20912;-76
2023/12/26 10:51:38;;;;;;;;;;;24.20;99.90;;;;;;4970371;28;19967;-75
2023/12/26 10:54:08;;;;;;;;;;;24.30;99.90;;;;;;4959877;28;19918;-73
2023/12/26 10:56:35;;;;;;;;;;;24.30;99.90;;;;;;4963132;28;19910;-74
2023/12/26 10:59:02;;;;;;;;;;;24.20;99.90;;;;;;4962852;28;19957;-73
2023/12/26 11:01:29;;;;;;;;;;;24.20;99.90;;;;;;4964094;28;19955;-74
2023/12/26 11:03:56;;;;;;;;;;;24.20;99.90;;;;;;4962888;28;20363;-75
2023/12/26 11:06:23;;;;;;;;;;;24.20;99.90;;;;;;4964917;28;19915;-74
2023/12/26 11:08:51;;;;;;;;;;;24.20;99.90;;;;;;4960525;28;20330;-71
2023/12/26 11:11:17;;;;;;;;;;;24.30;99.90;;;;;;4960811;28;19914;-74
2023/12/26 11:13:44;;;;;;;;;;;24.30;99.90;;;;;;4962410;28;19918;-70
2023/12/26 11:16:11;;;;;;;;;;;24.20;99.90;;;;;;4970193;28;19914;-79
2023/12/26 11:18:38;;;;;;;;;;;24.30;99.90;;;;;;4962126;28;20458;-73
2023/12/26 11:21:05;;;;;;;;;;;24.20;99.90;;;;;;4962964;28;19967;-67
2023/12/26 11:23:31;;;;;;;;;;;24.20;99.90;;;;;;4960959;28;19922;-72
2023/12/26 11:25:58;;;;;;;;;;;24.20;99.90;;;;;;4953616;28;19914;-66
2023/12/26 11:28:25;;;;;;;;;;;24.20;99.90;;;;;;4953817;28;19965;-71
2023/12/26 11:30:53;;;;;;;;;;;24.20;99.90;;;;;;4953610;28;20379;-69
2023/12/26 11:33:19;;;;;;;;;;;24.20;99.90;;;;;;4953856;28;19917;-67
2023/12/26 11:35:46;;;;;;;;;;;24.20;99.90;;;;;;4952817;28;19917;-68
2023/12/26 11:38:13;;;;;;;;;;;24.20;99.90;;;;;;4953600;28;19922;-71
2023/12/26 11:40:40;;;;;;;;;;;24.20;99.90;;;;;;4953757;28;19958;-68
2023/12/26 11:43:06;;;;;;;;;;;24.10;99.90;;;;;;4953290;28;19911;-70
2023/12/26 11:45:33;;;;;;;;;;;24.20;99.90;;;;;;4953334;28;19941;-69
2023/12/26 11:47:59;;;;;;;;;;;24.20;99.90;;;;;;4953661;29;19941;-66
2023/12/26 11:50:26;;;;;;;;;;;24.20;99.90;;;;;;4953679;29;19919;-67
2023/12/26 11:52:53;;;;;;;;;;;24.20;99.90;;;;;;4953308;28;19921;-67
2023/12/26 11:55:20;;;;;;;;;;;24.20;99.90;;;;;;4952328;28;20334;-67
2023/12/26 11:57:46;;;;;;;;;;;24.20;99.90;;;;;;4953601;28;20386;-70
2023/12/26 12:00:13;;;;;;;;;;;24.20;99.90;;;;;;4953364;29;20002;-65
2023/12/26 12:02:39;;;;;;;;;;;24.30;99.90;;;;;;4953273;28;19918;-69
2023/12/26 12:05:06;;;;;;;;;;;24.20;99.90;;;;;;4953165;28;19911;-67
2023/12/26 12:07:33;;;;;;;;;;;24.20;99.90;;;;;;4953120;28;19918;-67
2023/12/26 12:10:11;;;;;;;;;;;24.10;99.90;;;;;;4953444;29;19910;-66
2023/12/26 12:12:42;;;;;;;;;;;24.10;99.90;;;;;;4953239;29;19937;-68
2023/12/26 12:15:10;;;;;;;;;;;24.20;99.90;;;;;;4953181;29;20371;-68
2023/12/26 12:17:45;;;;;;;;;;;24.10;99.90;;;;;;4953006;29;20013;-67
2023/12/26 12:20:17;;;;;;;;;;;24.20;99.90;;;;;;4953081;28;19917;-69
2023/12/26 12:22:43;;;;;;;;;;;24.20;99.90;;;;;;4952676;29;19922;-67
2023/12/26 12:25:15;;;;;;;;;;;24.20;99.90;;;;;;4953074;28;19911;-69
2023/12/26 12:27:41;;;;;;;;;;;24.20;99.90;;;;;;4953124;29;19910;-66
2023/12/26 12:30:08;;;;;;;;;;;24.20;99.90;;;;;;4952916;29;19911;-72
2023/12/26 12:32:35;;;;;;;;;;;24.20;99.90;;;;;;4952715;29;19910;-67
2023/12/26 12:35:16;;;;;;;;;;;24.20;99.90;;;;;;4952865;28;19937;-70
2023/12/26 12:37:43;;;;;;;;;;;24.20;99.90;;;;;;4952865;29;19941;-72
2023/12/26 12:40:09;;;;;;;;;;;24.20;99.90;;;;;;4952958;29;19918;-66
2023/12/26 12:42:39;;;;;;;;;;;24.10;99.90;;;;;;4952843;29;19910;-67
2023/12/26 12:45:06;;;;;;;;;;;24.10;99.90;;;;;;4952731;28;19954;-67
2023/12/26 12:47:33;;;;;;;;;;;24.00;99.90;;;;;;4952153;28;19915;-67
2023/12/26 12:49:59;;;;;;;;;;;24.00;99.90;;;;;;4952575;28;20403;-67
2023/12/26 12:52:26;;;;;;;;;;;23.90;99.90;;;;;;4952328;29;19907;-67
2023/12/26 12:54:52;;;;;;;;;;;23.90;99.90;;;;;;4952560;28;20367;-67
2023/12/26 12:57:19;;;;;;;;;;;23.80;99.90;;;;;;4952499;29;19914;-71
2023/12/26 12:59:46;;;;;;;;;;;23.80;99.90;;;;;;4952490;28;19918;-67
2023/12/26 13:02:12;;;;;;;;;;;23.70;99.90;;;;;;4952438;28;19911;-67
2023/12/26 13:04:43;;;;;;;;;;;23.70;99.90;;;;;;4952407;28;19911;-66
2023/12/26 13:07:12;;;;;;;;;;;23.70;99.90;;;;;;4952336;28;19937;-67
2023/12/26 13:09:39;;;;;;;;;;;23.60;99.90;;;;;;4952361;29;19911;-69
2023/12/26 13:12:06;;;;;;;;;;;23.60;99.90;;;;;;4952302;28;19961;-71
2023/12/26 13:14:33;;;;;;;;;;;23.60;99.90;;;;;;4951937;28;20422;-71
2023/12/26 13:17:00;;;;;;;;;;;23.50;99.90;;;;;;4951968;28;19911;-66
2023/12/26 13:19:27;;;;;;;;;;;23.40;99.90;;;;;;4952076;28;19911;-67
2023/12/26 13:21:54;;;;;;;;;;;23.40;99.90;;;;;;4952132;28;19918;-66
2023/12/26 13:24:21;;;;;;;;;;;23.30;99.90;;;;;;4952055;29;19910;-72
2023/12/26 13:26:48;;;;;;;;;;;23.30;99.90;;;;;;4952076;29;19956;-70
2023/12/26 13:29:24;;;;;;;;;;;23.20;99.90;;;;;;4952106;29;19911;-67
2023/12/26 13:31:51;;;;;;;;;;;23.30;99.90;;;;;;4951849;28;19917;-66
2023/12/26 13:34:18;;;;;;;;;;;23.20;99.90;;;;;;4951946;28;20407;-67
2023/12/26 13:36:45;;;;;;;;;;;23.20;99.90;;;;;;4951825;28;19911;-66
2023/12/26 13:39:12;;;;;;;;;;;23.20;99.90;;;;;;4951887;28;19915;-67
2023/12/26 13:41:39;;;;;;;;;;;23.10;99.90;;;;;;4951787;28;19911;-67
2023/12/26 13:44:14;;;;;;;;;;;23.10;99.90;;;;;;4951901;28;20367;-67
2023/12/26 13:46:41;;;;;;;;;;;23.10;99.90;;;;;;4951745;29;19917;-66
2023/12/26 13:49:08;;;;;;;;;;;23.10;99.90;;;;;;4951818;29;20335;-66
2023/12/26 13:51:35;;;;;;;;;;;23.10;99.90;;;;;;4951621;29;19910;-65
2023/12/26 13:54:02;;;;;;;;;;;23.00;99.90;;;;;;4951435;28;19984;-67
2023/12/26 13:56:28;;;;;;;;;;;22.90;99.90;;;;;;4951934;28;19926;-66
2023/12/26 13:58:55;;;;;;;;;;;22.90;99.90;;;;;;4953700;29;19922;-66
2023/12/26 14:01:22;;;;;;;;;;;22.90;99.90;;;;;;4955158;28;19965;-66
2023/12/26 14:03:52;;;;;;;;;;;22.80;99.90;;;;;;4955284;28;19914;-67
2023/12/26 14:06:22;;;;;;;;;;;22.80;99.90;;;;;;4955008;28;19910;-66
2023/12/26 14:08:50;;;;;;;;;;;22.80;99.90;;;;;;4955224;28;19933;-71
2023/12/26 14:11:17;;;;;;;;;;;22.80;99.90;;;;;;4954788;28;19910;-68
2023/12/26 14:13:44;;;;;;;;;;;22.80;99.90;;;;;;4955036;28;19954;-67
2023/12/26 14:16:10;;;;;;;;;;;22.80;99.90;;;;;;4954838;28;20363;-67
2023/12/26 14:18:37;;;;;;;;;;;22.70;99.90;;;;;;4954643;28;19918;-65